createdAt,value
2023-02-02T00:00:59.126Z,95.90
2023-02-02T00:06:03.224Z,96.12
2023-02-02T00:11:07.206Z,95.09
2023-02-02T00:16:29.343Z,95.05
2023-02-02T00:21:33.325Z,94.94
2023-02-02T00:26:38.061Z,94.20
2023-02-02T00:31:41.296Z,93.53
2023-02-02T00:36:45.774Z,93.39
2023-02-02T00:41:49.543Z,92.04
2023-02-02T00:46:53.171Z,91.80
2023-02-02T00:51:56.896Z,91.11
2023-02-02T00:57:00.382Z,91.06
2023-02-02T01:02:03.817Z,90.50
2023-02-02T01:07:06.990Z,90.53
2023-02-02T01:12:10.189Z,91.21
2023-02-02T01:17:14.565Z,91.88
2023-02-02T01:22:18.458Z,92.24
2023-02-02T01:27:23.069Z,92.39
2023-02-02T01:32:26.162Z,91.58
2023-02-02T01:37:29.637Z,91.49
2023-02-02T01:42:32.693Z,91.95
2023-02-02T01:47:41.550Z,93.28
2023-02-02T01:52:49.820Z,91.68
2023-02-02T01:58:14.278Z,91.67
2023-02-02T02:03:24.599Z,89.90
2023-02-02T02:08:31.481Z,89.63
2023-02-02T02:13:58.238Z,89.11
2023-02-02T02:20:02.423Z,88.60
2023-02-02T02:32:06.622Z,82.10
2023-02-02T02:37:35.088Z,81.00
2023-02-02T02:42:44.306Z,80.00
2023-02-02T02:47:50.392Z,77.47
2023-02-02T02:59:39.067Z,75.32
2023-02-02T03:05:17.758Z,73.70
2023-02-02T03:10:25.727Z,74.16
2023-02-02T03:15:29.113Z,71.87
2023-02-02T03:20:33.245Z,70.16
2023-02-02T03:25:36.583Z,66.20
2023-02-02T03:30:42.135Z,63.36
2023-02-02T03:35:45.544Z,67.12
2023-02-02T03:40:49.245Z,68.12
2023-02-02T03:46:05.154Z,70.21
2023-02-02T03:51:11.850Z,70.27
2023-02-02T03:56:16.374Z,69.90
2023-02-02T04:01:29.207Z,69.12
2023-02-02T04:06:33.197Z,68.22
2023-02-02T04:11:36.272Z,67.38
2023-02-02T04:16:40.413Z,66.52
2023-02-02T04:21:44.101Z,64.08
2023-02-02T04:26:47.255Z,65.03
2023-02-02T04:31:52.344Z,65.50
2023-02-02T04:36:56.658Z,65.58
2023-02-02T04:42:00.196Z,65.79
2023-02-02T04:47:04.367Z,65.13
2023-02-02T04:52:07.467Z,63.89
2023-02-02T04:57:13.096Z,64.69
2023-02-02T05:02:16.188Z,64.66
2023-02-02T05:07:19.367Z,65.38
2023-02-02T05:12:23.023Z,65.49
2023-02-02T05:17:26.115Z,65.31
2023-02-02T05:22:29.156Z,65.98
2023-02-02T05:27:32.561Z,66.02
2023-02-02T05:32:36.126Z,66.72
2023-02-02T05:52:54.861Z,66.38
2023-02-02T05:57:58.436Z,67.78
2023-02-02T06:08:39.380Z,71.67
2023-02-02T06:13:45.906Z,72.45
2023-02-02T06:18:49.386Z,73.83
2023-02-02T06:23:52.893Z,75.09
2023-02-02T06:28:56.107Z,75.10
2023-02-02T06:34:00.283Z,74.72
2023-02-02T06:39:05.460Z,74.78
2023-02-02T06:44:08.412Z,75.51
2023-02-02T06:49:11.446Z,75.72
2023-02-02T06:54:15.120Z,73.17
2023-02-02T06:59:18.400Z,71.88
2023-02-02T07:04:22.019Z,67.13
2023-02-02T07:09:25.456Z,64.71
2023-02-02T07:14:28.805Z,64.85
2023-02-02T07:19:32.451Z,65.60
2023-02-02T07:24:35.459Z,66.80
2023-02-02T07:29:38.878Z,67.20
2023-02-02T07:34:42.729Z,65.80
2023-02-02T07:39:46.863Z,65.88
2023-02-02T07:44:49.825Z,65.21
2023-02-02T07:49:52.825Z,65.68
2023-02-02T07:55:05.377Z,62.88
2023-02-02T08:00:16.588Z,61.61
2023-02-02T08:05:20.703Z,59.30
2023-02-02T08:10:23.740Z,61.22
2023-02-02T08:15:27.104Z,57.01
2023-02-02T08:20:35.192Z,61.99
2023-02-02T08:25:38.747Z,57.42
2023-02-02T08:30:41.801Z,60.31
2023-02-02T08:35:46.019Z,56.98
2023-02-02T08:40:50.003Z,56.56
2023-02-02T08:46:01.722Z,55.56
2023-02-02T08:51:10.681Z,50.02
2023-02-02T08:56:13.604Z,47.79
2023-02-02T09:01:18.485Z,41.22
2023-02-02T09:06:24.542Z,40.50
2023-02-02T09:11:28.906Z,42.48
2023-02-02T09:16:32.340Z,44.44
2023-02-02T09:21:37.504Z,42.23
2023-02-02T09:26:41.421Z,40.18
2023-02-02T09:31:44.589Z,39.49
2023-02-02T09:36:47.945Z,39.62
2023-02-02T09:42:23.335Z,38.66
2023-02-02T09:47:53.887Z,40.02
2023-02-02T09:53:12.954Z,41.00
2023-02-02T09:58:29.018Z,39.93
2023-02-02T10:03:54.849Z,40.43
2023-02-02T10:09:28.573Z,38.30
2023-02-02T10:14:42.539Z,37.71
2023-02-02T10:19:45.796Z,39.33
2023-02-02T10:24:48.876Z,38.59
2023-02-02T10:30:03.898Z,40.57
2023-02-02T10:35:13.990Z,37.91
2023-02-02T10:40:20.645Z,40.95
2023-02-02T10:45:23.921Z,39.26
2023-02-02T10:50:28.538Z,40.09
2023-02-02T10:55:37.418Z,40.42
2023-02-02T11:00:46.894Z,41.96
2023-02-02T11:06:08.442Z,45.50
2023-02-02T11:11:17.364Z,46.72
2023-02-02T11:16:23.241Z,49.82
2023-02-02T11:21:32.509Z,46.61
2023-02-02T11:27:07.750Z,47.75
2023-02-02T11:32:21.298Z,49.38
2023-02-02T11:37:25.156Z,49.22
2023-02-02T11:42:29.344Z,48.96
2023-02-02T11:47:34.382Z,49.39
2023-02-02T11:52:40.495Z,52.54
2023-02-02T11:58:12.641Z,52.84
2023-02-02T12:03:28.718Z,53.93
2023-02-02T12:08:31.814Z,51.05
2023-02-02T12:13:53.217Z,53.06
2023-02-02T12:19:27.021Z,52.67
2023-02-02T12:24:43.674Z,53.68
2023-02-02T12:30:01.579Z,54.03
2023-02-02T12:35:13.735Z,54.22
2023-02-02T12:40:35.238Z,53.17
2023-02-02T12:45:43.594Z,52.71
2023-02-02T12:51:04.110Z,53.56
2023-02-02T12:56:16.616Z,55.74
2023-02-02T13:01:44.456Z,55.10
2023-02-02T13:07:28.991Z,53.96
2023-02-02T13:12:38.578Z,54.25
2023-02-02T13:17:52.241Z,54.75
2023-02-02T13:22:59.241Z,51.74
2023-02-02T13:28:07.002Z,45.45
2023-02-02T13:33:33.368Z,43.54
2023-02-02T13:38:42.398Z,39.96
2023-02-02T13:44:09.834Z,44.78
2023-02-02T13:49:27.940Z,46.57
2023-02-02T13:54:39.922Z,49.54
2023-02-02T13:59:51.920Z,48.07
2023-02-02T14:05:01.347Z,49.92
2023-02-02T14:10:04.987Z,50.39
2023-02-02T14:15:13.443Z,51.15
2023-02-02T14:20:41.938Z,51.49
2023-02-02T14:25:45.324Z,51.29
2023-02-02T14:31:37.582Z,51.94
2023-02-02T14:36:50.264Z,53.28
2023-02-02T14:42:15.108Z,54.07
2023-02-02T14:47:46.069Z,54.25
2023-02-02T14:53:02.991Z,55.08
2023-02-02T14:58:07.444Z,55.59
2023-02-02T15:03:49.459Z,54.91
2023-02-02T15:09:20.686Z,55.08
2023-02-02T15:14:27.734Z,56.13
2023-02-02T15:20:14.639Z,56.95
2023-02-02T15:25:49.540Z,56.61
2023-02-02T15:31:01.188Z,58.75
2023-02-02T15:36:26.101Z,60.23
2023-02-02T15:41:35.438Z,62.41
2023-02-02T15:46:38.811Z,59.59
2023-02-02T15:51:54.287Z,60.89
2023-02-02T15:56:59.792Z,59.55
2023-02-02T16:02:27.127Z,60.01
2023-02-02T16:07:34.454Z,61.16
2023-02-02T16:12:41.252Z,62.77
2023-02-02T16:17:44.119Z,62.85
2023-02-02T16:22:48.121Z,63.61
2023-02-02T16:27:53.266Z,63.63
2023-02-02T16:32:56.636Z,65.38
2023-02-02T16:38:18.769Z,66.08
2023-02-02T16:43:28.869Z,66.46
2023-02-02T16:48:39.600Z,68.38
2023-02-02T16:53:49.821Z,69.48
2023-02-02T16:58:58.257Z,71.25
2023-02-02T17:04:02.235Z,71.48
2023-02-02T17:09:16.879Z,71.36
2023-02-02T17:14:21.061Z,73.03
2023-02-02T17:19:25.057Z,74.39
2023-02-02T17:24:30.062Z,74.46
2023-02-02T17:29:35.481Z,74.70
2023-02-02T17:34:38.892Z,74.14
2023-02-02T17:39:42.302Z,74.89
2023-02-02T17:44:45.742Z,76.13
2023-02-02T17:49:49.768Z,77.79
2023-02-02T17:54:52.709Z,79.29
2023-02-02T17:59:56.237Z,80.17
2023-02-02T18:04:59.592Z,80.21
2023-02-02T18:10:02.990Z,80.50
2023-02-02T18:15:08.367Z,81.41
2023-02-02T18:20:15.666Z,81.60
2023-02-02T18:25:18.634Z,82.09
2023-02-02T18:30:22.037Z,83.11
2023-02-02T18:35:26.206Z,82.94
2023-02-02T18:40:29.395Z,83.17
2023-02-02T18:45:33.633Z,84.23
2023-02-02T18:50:37.039Z,85.00
2023-02-02T18:55:40.903Z,85.27
2023-02-02T19:00:45.625Z,85.08
2023-02-02T19:06:08.115Z,84.90
2023-02-02T19:11:39.300Z,85.37
2023-02-02T19:16:44.614Z,86.05
2023-02-02T19:21:48.009Z,86.88
2023-02-02T19:26:51.135Z,87.37
2023-02-02T19:32:03.034Z,87.54
2023-02-02T19:37:24.866Z,88.42
2023-02-02T19:42:28.736Z,87.93
2023-02-02T19:47:33.824Z,89.65
2023-02-02T19:52:37.069Z,89.63
2023-02-02T19:57:42.206Z,90.70
2023-02-02T20:03:02.089Z,91.36
2023-02-02T20:08:30.216Z,91.74
2023-02-02T20:13:43.005Z,92.01
2023-02-02T20:18:52.238Z,91.94
2023-02-02T20:23:55.145Z,91.74
2023-02-02T20:29:01.168Z,91.49
2023-02-02T20:34:23.454Z,90.65
2023-02-02T20:39:33.076Z,90.51
2023-02-02T20:44:36.762Z,91.69
2023-02-02T20:49:40.282Z,92.31
2023-02-02T20:54:43.670Z,93.29
2023-02-02T20:59:46.999Z,93.60
2023-02-02T21:04:51.413Z,94.01
2023-02-02T21:09:54.340Z,93.73
2023-02-02T21:14:58.337Z,93.67
2023-02-02T21:20:01.297Z,93.70
2023-02-02T21:25:05.302Z,94.80
2023-02-02T21:30:11.017Z,94.90
2023-02-02T21:35:15.237Z,95.02
2023-02-02T21:40:30.059Z,94.90
2023-02-02T21:45:39.396Z,95.39
2023-02-02T21:50:43.243Z,95.65
2023-02-02T21:55:59.614Z,95.60
2023-02-02T22:01:24.361Z,95.30
2023-02-02T22:06:31.124Z,95.46
2023-02-02T22:11:49.787Z,96.21
2023-02-02T22:16:57.173Z,96.67
2023-02-02T22:22:09.179Z,96.01
2023-02-02T22:27:24.556Z,97.17
2023-02-02T22:32:52.938Z,96.46
2023-02-02T22:37:56.420Z,96.54
2023-02-02T22:43:05.954Z,97.03
2023-02-02T22:48:09.345Z,96.87
2023-02-02T22:53:14.233Z,97.07
2023-02-02T22:58:17.145Z,97.45
2023-02-02T23:03:20.214Z,97.62
2023-02-02T23:08:23.610Z,97.95
2023-02-02T23:13:27.115Z,97.96
2023-02-02T23:18:30.035Z,98.46
2023-02-02T23:23:32.995Z,97.87
2023-02-02T23:28:36.359Z,98.34
2023-02-02T23:33:40.061Z,98.56
2023-02-02T23:38:43.189Z,98.92
2023-02-02T23:43:46.811Z,98.92
2023-02-02T23:48:49.857Z,98.97
2023-02-02T23:53:53.380Z,98.82
2023-02-02T23:58:57.275Z,98.39
